Time;durP1;ratioP1;P1;durP2;ratioP2;P2;SDS_P1;SDS_P2;PMS_P1;PMS_P2;Temp;Humidity;BMP_temperature;BMP_pressure;BME280_temperature;BME280_humidity;BME280_pressure;Samples;Min_cycle;Max_cycle;Signal;HPM_P1;HPM_P2
2023/04/14 00:00:23;;;;;;;2.60;2.40;;;;;;;5.83;79.00;98120.59;5090799;28;42554;-84
2023/04/14 00:02:51;;;;;;;2.40;2.20;;;;;;;5.81;78.89;98128.56;5090534;28;40979;-82
2023/04/14 00:05:20;;;;;;;2.53;2.10;;;;;;;5.72;78.38;98113.31;5073779;28;39179;-83
2023/04/14 00:07:47;;;;;;;4.17;2.33;;;;;;;5.77;78.26;98127.06;5090695;28;41806;-82
2023/04/14 00:10:15;;;;;;;2.07;1.97;;;;;;;5.58;78.12;98094.81;5074149;28;42837;-85
2023/04/14 00:12:42;;;;;;;2.50;2.00;;;;;;;5.72;77.81;98119.41;5090453;28;42273;-81
2023/04/14 00:15:11;;;;;;;2.10;1.67;;;;;;;5.68;78.06;98111.81;5090508;28;39210;-85
2023/04/14 00:17:38;;;;;;;2.40;2.20;;;;;;;5.61;77.64;98105.19;5092609;28;41787;-82
2023/04/14 00:20:09;;;;;;;2.00;1.80;;;;;;;5.66;77.70;98134.69;5077327;28;41527;-80
2023/04/14 00:22:37;;;;;;;3.20;2.00;;;;;;;5.55;77.74;98116.03;5093104;28;42197;-83
2023/04/14 00:25:06;;;;;;;2.00;1.80;;;;;;;5.61;77.69;98132.28;5077364;28;41322;-82
2023/04/14 00:27:33;;;;;;;2.13;2.00;;;;;;;5.60;77.79;98129.75;5093687;28;40800;-83
2023/04/14 00:30:01;;;;;;;2.73;2.30;;;;;;;5.58;77.75;98131.59;5077298;28;41682;-81
2023/04/14 00:32:29;;;;;;;2.93;2.33;;;;;;;5.55;77.82;98137.03;5093703;28;41263;-83
2023/04/14 00:34:59;;;;;;;2.73;2.53;;;;;;;5.53;77.48;98133.63;5095226;28;40200;-79
2023/04/14 00:37:28;;;;;;;2.20;2.00;;;;;;;5.49;77.58;98142.59;5076642;28;40619;-80
2023/04/14 00:39:56;;;;;;;3.00;2.57;;;;;;;5.47;77.78;98139.19;5076902;28;41233;-83
2023/04/14 00:42:23;;;;;;;4.40;2.83;;;;;;;5.45;77.76;98148.94;5076648;28;42221;-83
2023/04/14 00:44:51;;;;;;;3.37;2.60;;;;;;;5.38;77.36;98143.19;5076962;28;39214;-83
2023/04/14 00:47:21;;;;;;;4.23;3.50;;;;;;;5.30;77.68;98138.34;5093284;28;41891;-81
2023/04/14 00:49:49;;;;;;;3.63;3.20;;;;;;;5.28;77.58;98134.09;5093964;28;42550;-85
2023/04/14 00:52:17;;;;;;;3.97;2.83;;;;;;;5.29;77.53;98141.91;5093670;28;42978;-83
2023/04/14 00:54:47;;;;;;;2.53;2.33;;;;;;;5.31;77.35;98157.56;5076789;28;39082;-80
2023/04/14 00:57:14;;;;;;;2.60;2.40;;;;;;;4.98;77.32;98103.25;5093200;28;40702;-84
2023/04/14 00:59:42;;;;;;;3.10;2.60;;;;;;;5.24;77.45;98154.41;5076533;28;41623;-83
2023/04/14 01:02:11;;;;;;;3.00;2.67;;;;;;;5.22;77.24;98161.50;5093427;28;42091;-79
2023/04/14 01:04:40;;;;;;;4.27;2.50;;;;;;;5.20;77.49;98163.34;5076591;28;39005;-83
2023/04/14 01:07:08;;;;;;;3.07;2.57;;;;;;;5.15;77.33;98160.13;5076624;28;40724;-80
2023/04/14 01:09:38;;;;;;;3.43;2.60;;;;;;;5.10;77.34;98164.75;5076478;28;41934;-83
2023/04/14 01:12:16;;;;;;;2.30;2.10;;;;;;;4.98;77.68;98153.13;5076010;28;42153;-84
2023/04/14 01:14:48;;;;;;;2.80;2.13;;;;;;;5.09;77.37;98168.31;5090689;28;41607;-81
2023/04/14 01:17:23;;;;;;;3.20;2.90;;;;;;;5.07;77.39;98170.16;5076522;28;40904;-80
2023/04/14 01:20:07;;;;;;;2.20;2.00;;;;;;;5.02;77.62;98164.31;5076763;28;42305;-81
2023/04/14 01:22:39;;;;;;;2.47;2.10;;;;;;;5.00;77.63;98176.66;5076261;28;42850;-82
2023/04/14 01:25:24;;;;;;;2.80;2.57;;;;;;;4.98;77.63;98179.34;5076493;28;39302;-79
2023/04/14 01:28:09;;;;;;;2.40;2.20;;;;;;;4.84;77.48;98160.84;5075546;28;41545;-82
2023/04/14 01:30:59;;;;;;;3.10;2.40;;;;;;;4.91;77.51;98188.47;5076335;28;42493;-84
2023/04/14 01:33:34;;;;;;;3.07;2.57;;;;;;;4.87;77.35;98178.19;5075953;28;41233;-80
2023/04/14 01:36:07;;;;;;;2.80;2.30;;;;;;;4.85;77.56;98185.28;5076003;28;40000;-81
2023/04/14 01:38:39;;;;;;;2.20;2.00;;;;;;;4.82;77.29;98185.47;5092556;28;41778;-83
2023/04/14 01:41:10;;;;;;;3.47;2.77;;;;;;;4.80;77.44;98187.31;5092829;28;41789;-80
2023/04/14 01:43:42;;;;;;;2.57;2.33;;;;;;;4.77;77.77;98176.97;5089717;28;42247;-80
2023/04/14 01:46:14;;;;;;;2.70;2.30;;;;;;;4.76;77.50;98183.13;5092544;28;38943;-82
2023/04/14 01:48:45;;;;;;;2.80;2.50;;;;;;;4.75;77.89;98189.31;5089736;28;41835;-80
2023/04/14 01:51:17;;;;;;;3.73;3.33;;;;;;;4.73;78.12;98181.50;5075393;28;42753;-80
2023/04/14 01:53:46;;;;;;;3.00;2.60;;;;;;;4.73;77.89;98189.38;5075915;28;41284;-80
2023/04/14 01:56:16;;;;;;;2.87;2.57;;;;;;;4.52;77.63;98153.75;5092665;28;40818;-81
2023/04/14 01:58:47;;;;;;;2.97;2.67;;;;;;;4.68;77.53;98200.13;5075670;28;41573;-81
2023/04/14 02:01:16;;;;;;;3.23;2.83;;;;;;;4.68;77.68;98197.50;5092140;28;43012;-81
2023/04/14 02:03:47;;;;;;;3.63;2.90;;;;;;;4.66;77.65;98188.84;5075571;28;41192;-81
2023/04/14 02:06:16;;;;;;;4.07;3.07;;;;;;;4.65;77.57;98197.63;5092149;28;41355;-81
2023/04/14 02:08:44;;;;;;;3.13;2.83;;;;;;;4.64;77.21;98195.09;5075337;28;40996;-81
2023/04/14 02:11:14;;;;;;;3.77;2.90;;;;;;;4.62;77.40;98194.31;5092273;28;42684;-80
2023/04/14 02:13:44;;;;;;;3.73;3.43;;;;;;;4.63;77.90;98190.75;5092318;28;42961;-82
2023/04/14 02:16:14;;;;;;;4.07;3.33;;;;;;;4.64;77.96;98182.81;5092169;28;40806;-81
2023/04/14 02:18:41;;;;;;;3.97;3.30;;;;;;;4.64;77.98;98184.59;5075475;28;40437;-84
2023/04/14 02:21:15;;;;;;;5.77;4.80;;;;;;;4.64;77.93;98185.44;5075046;28;42886;-79
2023/04/14 02:23:43;;;;;;;4.10;3.57;;;;;;;4.65;77.80;98186.31;5075462;28;41203;-78
2023/04/14 02:26:14;;;;;;;5.13;4.00;;;;;;;4.31;77.86;98135.53;5075150;28;39242;-80
2023/04/14 02:28:49;;;;;;;6.30;4.43;;;;;;;4.34;78.35;98143.22;5074991;28;40781;-82
2023/04/14 02:31:22;;;;;;;5.33;4.30;;;;;;;4.72;78.02;98186.81;5089405;28;42566;-79
2023/04/14 02:33:55;;;;;;;6.37;5.33;;;;;;;4.71;78.34;98178.13;5075294;28;41442;-82
2023/04/14 02:36:31;;;;;;;5.67;4.60;;;;;;;4.79;78.12;98185.63;5092372;28;38791;-78
2023/04/14 02:39:02;;;;;;;4.50;3.87;;;;;;;4.81;78.00;98184.63;5089022;28;41530;-81
2023/04/14 02:41:34;;;;;;;6.73;4.60;;;;;;;4.86;77.86;98189.63;5074167;28;41184;-81
2023/04/14 02:44:07;;;;;;;6.57;4.67;;;;;;;4.88;77.98;98188.63;5091919;28;43008;-82
2023/04/14 02:46:40;;;;;;;5.70;4.23;;;;;;;4.89;77.82;98178.97;5089495;28;40163;-84
2023/04/14 02:49:13;;;;;;;7.13;5.27;;;;;;;4.96;78.10;98190.84;5074955;28;41914;-80
2023/04/14 02:51:47;;;;;;;5.50;4.87;;;;;;;4.99;78.19;98185.44;5089376;28;43755;-80
2023/04/14 02:54:19;;;;;;;4.63;4.20;;;;;;;5.03;78.36;98184.38;5088770;28;42298;-82
2023/04/14 02:56:49;;;;;;;8.43;5.10;;;;;;;5.07;78.44;98182.47;5074794;28;39813;-78
2023/04/14 02:59:22;;;;;;;6.27;4.93;;;;;;;5.07;78.30;98178.88;5088850;28;41756;-80
2023/04/14 03:02:03;;;;;;;5.63;4.10;;;;;;;5.10;78.28;98171.78;5089751;28;42967;-83
2023/04/14 03:04:35;;;;;;;5.57;4.77;;;;;;;5.12;78.45;98168.16;5088607;28;42619;-83
2023/04/14 03:07:11;;;;;;;4.53;3.90;;;;;;;5.14;78.05;98168.94;5090234;28;40017;-80
2023/04/14 03:09:40;;;;;;;6.70;4.37;;;;;;;5.17;78.01;98167.94;5075085;28;40388;-81
2023/04/14 03:12:13;;;;;;;4.47;3.80;;;;;;;5.19;78.27;98166.09;5074423;28;41723;-78
2023/04/14 03:14:43;;;;;;;5.10;4.60;;;;;;;5.20;78.16;98167.75;5089148;28;43373;-82
2023/04/14 03:17:13;;;;;;;4.83;4.10;;;;;;;5.22;78.14;98165.91;5095299;28;40915;-80
2023/04/14 03:19:46;;;;;;;4.10;3.70;;;;;;;5.24;78.01;98164.03;5078269;28;40583;-79
2023/04/14 03:22:18;;;;;;;4.57;3.80;;;;;;;5.13;78.03;98146.25;5094224;28;43814;-80
2023/04/14 03:24:46;;;;;;;4.23;3.83;;;;;;;5.27;78.26;98171.78;5079146;28;41232;-79
2023/04/14 03:27:16;;;;;;;3.90;3.60;;;;;;;5.17;78.28;98158.28;5094100;28;39953;-82
2023/04/14 03:29:47;;;;;;;4.70;4.30;;;;;;;5.31;78.71;98170.69;5088413;28;41739;-78
2023/04/14 03:32:17;;;;;;;4.20;3.67;;;;;;;5.31;78.38;98179.41;5089949;28;42860;-84
2023/04/14 03:34:50;;;;;;;4.67;3.97;;;;;;;5.24;78.22;98169.28;5074090;28;41251;-82
2023/04/14 03:37:24;;;;;;;4.10;3.70;;;;;;;5.20;78.36;98157.25;5089957;28;40102;-79
2023/04/14 03:39:57;;;;;;;3.97;3.43;;;;;;;5.35;78.16;98186.19;5088261;28;41820;-79
2023/04/14 03:42:28;;;;;;;3.93;3.53;;;;;;;5.38;78.07;98193.06;5073574;28;43345;-83
2023/04/14 03:44:59;;;;;;;4.77;3.70;;;;;;;5.37;77.91;98186.97;5074294;28;41182;-81
2023/04/14 03:47:30;;;;;;;4.03;3.40;;;;;;;5.36;77.87;98185.25;5074257;28;39709;-83
2023/04/14 03:50:00;;;;;;;3.77;3.40;;;;;;;5.41;77.81;98192.91;5073961;28;40418;-79
2023/04/14 03:52:34;;;;;;;3.70;3.30;;;;;;;5.44;78.13;98186.66;5076584;28;42731;-82
2023/04/14 03:55:06;;;;;;;4.90;3.47;;;;;;;5.41;77.98;98175.38;5077962;28;41215;-80
2023/04/14 03:57:37;;;;;;;4.00;3.60;;;;;;;5.40;77.74;98185.97;5093601;28;40669;-84
2023/04/14 04:00:08;;;;;;;4.60;4.13;;;;;;;5.38;77.81;98186.03;5094987;28;41352;-82
2023/04/14 04:02:43;;;;;;;3.90;3.50;;;;;;;5.34;78.11;98181.84;5094573;28;42608;-85
2023/04/14 04:05:13;;;;;;;5.13;4.20;;;;;;;5.30;78.30;98182.97;5077356;28;41316;-80
2023/04/14 04:07:43;;;;;;;3.70;3.40;;;;;;;5.23;78.52;98178.94;5077095;28;38989;-81
2023/04/14 04:10:15;;;;;;;3.07;2.77;;;;;;;5.02;78.38;98159.06;5077264;28;40634;-82
2023/04/14 04:12:45;;;;;;;3.80;3.40;;;;;;;5.10;78.80;98182.28;5077481;28;41815;-84
2023/04/14 04:15:14;;;;;;;3.43;3.13;;;;;;;5.02;78.65;98169.56;5076943;28;41097;-79
2023/04/14 04:17:44;;;;;;;3.80;3.00;;;;;;;4.93;78.69;98159.53;5094285;28;40898;-79
2023/04/14 04:20:15;;;;;;;3.20;2.90;;;;;;;4.86;79.23;98161.63;5077237;28;41588;-79
2023/04/14 04:22:48;;;;;;;3.10;2.73;;;;;;;4.79;78.90;98162.00;5077189;28;41954;-82
2023/04/14 04:25:17;;;;;;;2.97;2.57;;;;;;;4.73;78.82;98162.31;5077659;28;40872;-82
2023/04/14 04:27:52;;;;;;;2.80;2.60;;;;;;;4.66;78.92;98156.53;5093434;28;41009;-78
2023/04/14 04:30:22;;;;;;;2.80;2.50;;;;;;;4.61;79.04;98153.28;5077141;28;41597;-83
2023/04/14 04:32:50;;;;;;;4.27;2.83;;;;;;;4.55;78.86;98162.31;5076981;28;41675;-83
2023/04/14 04:35:19;;;;;;;3.53;2.40;;;;;;;4.53;78.97;98164.16;5077031;28;41182;-80
2023/04/14 04:37:50;;;;;;;2.90;2.60;;;;;;;4.51;79.56;98173.88;5076986;28;39874;-80
2023/04/14 04:40:18;;;;;;;3.40;3.10;;;;;;;4.49;79.51;98169.63;5077081;28;41311;-82
2023/04/14 04:42:49;;;;;;;4.67;3.70;;;;;;;4.48;79.54;98163.53;5077127;28;41732;-83
2023/04/14 04:45:40;;;;;;;3.27;2.60;;;;;;;4.47;79.54;98172.31;5093822;28;42442;-81
2023/04/14 04:48:09;;;;;;;3.70;3.00;;;;;;;4.48;79.63;98179.25;5076763;28;38902;-80
2023/04/14 04:50:37;;;;;;;2.87;2.43;;;;;;;4.47;79.70;98169.69;5094715;28;41647;-81
2023/04/14 04:53:06;;;;;;;2.90;2.60;;;;;;;4.49;79.52;98175.72;5076461;28;41894;-83
2023/04/14 04:55:34;;;;;;;4.30;3.50;;;;;;;4.47;81.59;98147.84;5093726;28;42946;-81
2023/04/14 04:58:01;;;;;;;4.70;3.60;;;;;;;4.46;81.98;98154.88;5093686;28;40035;-78
2023/04/14 05:00:29;;;;;;;4.37;3.73;;;;;;;4.50;81.07;98156.44;5094406;28;42710;-79
2023/04/14 05:02:57;;;;;;;4.70;3.23;;;;;;;4.52;80.75;98178.19;5092299;28;41763;-80
2023/04/14 05:05:24;;;;;;;4.80;3.63;;;;;;;4.53;80.48;98177.25;5076220;28;41451;-80
2023/04/14 05:07:52;;;;;;;4.37;3.43;;;;;;;4.48;80.33;98166.16;5093449;28;39867;-83
2023/04/14 05:10:22;;;;;;;2.97;2.37;;;;;;;4.55;79.97;98180.66;5076568;28;41730;-79
2023/04/14 05:12:50;;;;;;;3.50;3.10;;;;;;;4.58;79.94;98172.63;5076429;28;41794;-80
2023/04/14 05:15:18;;;;;;;4.47;3.30;;;;;;;4.61;79.95;98185.59;5076040;28;42655;-83
2023/04/14 05:17:46;;;;;;;4.80;3.43;;;;;;;4.62;80.01;98176.81;5093116;28;40142;-82
2023/04/14 05:20:14;;;;;;;4.33;3.47;;;;;;;4.65;79.91;98179.28;5076296;28;40758;-79
2023/04/14 05:22:42;;;;;;;5.03;4.00;;;;;;;4.67;79.92;98172.19;5076280;28;41799;-80
2023/04/14 05:25:10;;;;;;;5.00;4.03;;;;;;;4.73;80.05;98178.88;5093065;28;41209;-81
2023/04/14 05:27:39;;;;;;;5.10;4.17;;;;;;;4.79;79.83;98172.50;5094080;28;40884;-80
2023/04/14 05:30:08;;;;;;;5.87;3.73;;;;;;;4.83;80.09;98164.38;5093112;28;41533;-81
2023/04/14 05:32:35;;;;;;;7.33;4.20;;;;;;;4.78;80.23;98150.66;5092897;28;43438;-85
2023/04/14 05:35:04;;;;;;;6.83;3.87;;;;;;;5.05;80.09;98177.28;5076459;28;42438;-80
2023/04/14 05:37:32;;;;;;;5.87;4.43;;;;;;;5.21;80.09;98169.44;5092820;28;39711;-81
2023/04/14 05:39:59;;;;;;;8.60;3.80;;;;;;;4.93;79.89;98101.81;5092808;28;40880;-81
2023/04/14 05:42:27;;;;;;;4.80;3.40;;;;;;;5.60;79.68;98177.88;5092547;28;41965;-80
2023/04/14 05:44:56;;;;;;;6.13;3.87;;;;;;;5.82;79.42;98182.81;5093180;28;42213;-80
2023/04/14 05:47:24;;;;;;;5.80;3.80;;;;;;;6.00;79.30;98192.38;5075857;28;39011;-78
2023/04/14 05:49:52;;;;;;;9.23;4.20;;;;;;;6.12;79.14;98190.84;5092784;28;41780;-79
2023/04/14 05:52:20;;;;;;;4.73;3.83;;;;;;;6.23;78.49;98200.75;5092518;28;43353;-79
2023/04/14 05:54:48;;;;;;;5.63;4.00;;;;;;;6.38;78.29;98202.53;5075902;28;42631;-83
2023/04/14 05:57:16;;;;;;;4.80;4.30;;;;;;;6.46;78.10;98210.84;5092473;28;40729;-80
2023/04/14 05:59:43;;;;;;;4.77;3.77;;;;;;;6.54;78.13;98213.91;5075785;28;40259;-81
2023/04/14 06:02:12;;;;;;;5.00;3.60;;;;;;;6.64;77.93;98222.97;5093542;28;43010;-82
2023/04/14 06:04:40;;;;;;;4.90;4.30;;;;;;;6.96;76.97;98225.53;5092872;28;41380;-81
2023/04/14 06:07:08;;;;;;;5.57;4.33;;;;;;;7.30;76.15;98235.78;5092510;28;39875;-84
2023/04/14 06:09:36;;;;;;;4.47;3.60;;;;;;;7.43;75.52;98236.75;5092804;28;41742;-83
2023/04/14 06:12:04;;;;;;;7.20;4.80;;;;;;;7.40;75.32;98236.09;5093338;28;43679;-80
2023/04/14 06:14:32;;;;;;;5.80;4.33;;;;;;;7.37;75.43;98237.13;5075246;28;42196;-81
2023/04/14 06:16:59;;;;;;;4.80;4.27;;;;;;;7.28;75.05;98211.34;5075989;28;39733;-81
2023/04/14 06:19:29;;;;;;;4.40;3.93;;;;;;;7.53;75.15;98237.91;5075956;28;40791;-80
2023/04/14 06:21:57;;;;;;;4.23;3.80;;;;;;;7.68;74.09;98240.53;5093355;28;42540;-78
2023/04/14 06:24:24;;;;;;;5.73;3.73;;;;;;;7.79;73.33;98230.22;5075582;28;42015;-83
2023/04/14 06:26:52;;;;;;;3.83;3.33;;;;;;;7.96;73.44;98240.56;5092599;28;41012;-80
2023/04/14 06:29:20;;;;;;;3.40;3.10;;;;;;;8.02;73.29;98239.34;5075027;28;41107;-79
2023/04/14 06:31:50;;;;;;;4.07;3.67;;;;;;;8.02;73.16;98239.34;5074937;28;41752;-78
2023/04/14 06:34:18;;;;;;;3.23;2.93;;;;;;;7.98;72.46;98233.41;5092273;28;43537;-81
2023/04/14 06:36:47;;;;;;;3.80;3.50;;;;;;;7.84;72.47;98223.69;5091998;28;40915;-81
2023/04/14 06:39:15;;;;;;;3.30;3.00;;;;;;;7.76;72.82;98235.66;5091942;28;40628;-82
2023/04/14 06:41:43;;;;;;;2.87;2.67;;;;;;;7.71;73.08;98229.81;5091773;28;43600;-83
2023/04/14 06:44:13;;;;;;;2.50;2.30;;;;;;;7.71;73.16;98221.91;5092452;28;42826;-77
2023/04/14 06:46:41;;;;;;;2.23;2.03;;;;;;;7.75;73.27;98216.38;5092946;28;40849;-82
2023/04/14 06:49:09;;;;;;;3.70;2.37;;;;;;;7.89;74.04;98218.16;5092100;28;41790;-82
2023/04/14 06:51:37;;;;;;;2.20;2.00;;;;;;;8.10;73.27;98221.25;5074489;28;42604;-79
2023/04/14 06:54:06;;;;;;;2.70;2.50;;;;;;;8.26;72.89;98216.72;5075145;28;42407;-82
2023/04/14 06:56:34;;;;;;;3.07;2.87;;;;;;;8.45;72.62;98213.75;5091714;28;40913;-84
2023/04/14 06:59:02;;;;;;;2.83;2.43;;;;;;;8.50;72.63;98203.78;5093108;28;41604;-83
2023/04/14 07:01:30;;;;;;;2.33;2.13;;;;;;;8.67;73.51;98200.88;5074696;28;41980;-82
2023/04/14 07:03:57;;;;;;;2.23;1.80;;;;;;;8.87;72.42;98203.06;5074539;28;41168;-79
2023/04/14 07:06:25;;;;;;;1.70;1.60;;;;;;;9.07;71.59;98192.97;5091477;28;41077;-80
2023/04/14 07:08:54;;;;;;;1.83;1.70;;;;;;;9.44;70.57;98208.03;5091862;28;41938;-83
2023/04/14 07:11:24;;;;;;;2.13;1.93;;;;;;;9.89;69.21;98213.75;5091502;28;41733;-80
2023/04/14 07:13:52;;;;;;;3.07;1.70;;;;;;;10.41;68.09;98211.75;5091642;28;41214;-81
2023/04/14 07:16:19;;;;;;;2.67;1.83;;;;;;;10.70;67.19;98211.44;5092153;28;40833;-80
2023/04/14 07:18:47;;;;;;;1.77;1.63;;;;;;;10.85;65.98;98220.91;5092583;28;41764;-78
2023/04/14 07:21:15;;;;;;;4.07;2.10;;;;;;;10.92;65.98;98210.69;5092175;28;43848;-83
2023/04/14 07:23:43;;;;;;;3.50;1.73;;;;;;;11.08;66.33;98203.31;5091645;28;42538;-81
2023/04/14 07:26:11;;;;;;;2.60;2.03;;;;;;;11.45;66.78;98198.72;5091566;28;39960;-82
2023/04/14 07:28:40;;;;;;;2.30;2.00;;;;;;;11.90;65.98;98198.78;5090877;28;40780;-83
2023/04/14 07:31:09;;;;;;;2.93;2.30;;;;;;;12.11;64.43;98207.75;5092190;28;42889;-82
2023/04/14 07:33:37;;;;;;;2.70;1.77;;;;;;;12.39;65.40;98199.25;5074390;28;40871;-83
2023/04/14 07:36:06;;;;;;;2.97;2.13;;;;;;;12.91;62.59;98226.91;5074410;28;39239;-81
2023/04/14 07:38:34;;;;;;;3.63;2.13;;;;;;;13.46;61.10;98222.34;5090803;28;41976;-80
2023/04/14 07:41:04;;;;;;;1.87;1.77;;;;;;;14.20;60.52;98225.72;5090763;28;42815;-81
2023/04/14 07:43:34;;;;;;;2.20;1.80;;;;;;;14.83;59.45;98234.34;5090888;28;43167;-79
2023/04/14 07:46:05;;;;;;;2.47;2.00;;;;;;;15.32;55.88;98252.94;5091139;28;39639;-79
2023/04/14 07:48:33;;;;;;;3.00;1.77;;;;;;;16.04;53.22;98271.13;5088985;28;42411;-78
2023/04/14 07:51:01;;;;;;;2.40;1.70;;;;;;;16.23;53.54;98243.50;5090573;28;41978;-78
2023/04/14 07:53:30;;;;;;;3.10;1.93;;;;;;;16.44;54.52;98241.44;5073601;28;41574;-82
2023/04/14 07:55:58;;;;;;;2.00;1.53;;;;;;;16.55;53.42;98261.81;5073909;28;39778;-82
2023/04/14 07:58:26;;;;;;;2.90;1.60;;;;;;;16.69;54.76;98250.63;5090902;28;42637;-79
2023/04/14 08:00:54;;;;;;;2.70;1.67;;;;;;;16.98;52.25;98266.53;5074065;28;41519;-82
2023/04/14 08:03:23;;;;;;;3.47;1.43;;;;;;;17.84;51.05;98264.16;5091822;28;42330;-82
2023/04/14 08:05:51;;;;;;;2.27;1.60;;;;;;;18.63;48.27;98262.19;5090615;28;38998;-80
2023/04/14 08:08:19;;;;;;;3.00;1.50;;;;;;;19.47;47.20;98280.03;5091564;28;41826;-78
2023/04/14 08:10:46;;;;;;;4.07;1.03;;;;;;;20.20;45.82;98266.59;5073757;28;42652;-80
2023/04/14 08:13:14;;;;;;;2.77;1.70;;;;;;;21.52;43.35;98294.50;5091144;28;43188;-79
2023/04/14 08:15:42;;;;;;;1.43;1.10;;;;;;;22.22;41.43;98298.88;5091390;28;40173;-79
2023/04/14 08:18:10;;;;;;;2.40;1.33;;;;;;;22.34;40.30;98305.50;5073270;28;40905;-81
2023/04/14 08:20:40;;;;;;;2.63;1.60;;;;;;;23.01;39.30;98307.31;5073036;28;41734;-81
2023/04/14 08:23:08;;;;;;;3.27;1.50;;;;;;;23.89;37.97;98304.38;5073397;28;41960;-81
2023/04/14 08:25:36;;;;;;;2.57;1.70;;;;;;;24.76;37.22;98309.44;5090718;28;38679;-80
2023/04/14 08:28:04;;;;;;;2.53;1.60;;;;;;;25.85;35.84;98322.03;5073326;28;41498;-82
2023/04/14 08:30:32;;;;;;;2.40;1.80;;;;;;;27.32;33.10;98324.44;5091640;28;43568;-83
2023/04/14 08:32:59;;;;;;;2.43;1.93;;;;;;;28.54;31.42;98324.09;5073494;28;41412;-80
2023/04/14 08:35:27;;;;;;;2.20;1.83;;;;;;;29.37;30.06;98324.47;5090686;28;39052;-79
2023/04/14 08:37:59;;;;;;;2.50;1.70;;;;;;;30.13;28.78;98329.34;5073538;28;40672;-83
2023/04/14 08:40:36;;;;;;;2.03;1.77;;;;;;;30.24;27.99;98331.25;5091823;28;43053;-79
2023/04/14 08:43:04;;;;;;;2.37;1.90;;;;;;;30.26;27.73;98329.13;5092971;28;43782;-80
2023/04/14 08:45:33;;;;;;;1.50;1.40;;;;;;;30.57;27.95;98319.81;5094864;28;40849;-81
2023/04/14 08:48:02;;;;;;;2.80;1.83;;;;;;;29.85;28.25;98320.91;5094715;28;42666;-80
2023/04/14 08:50:35;;;;;;;3.03;2.20;;;;;;;29.67;28.77;98306.25;5093730;28;43698;-82
2023/04/14 08:53:08;;;;;;;2.63;1.73;;;;;;;30.25;27.61;98311.06;5093382;28;43173;-80
2023/04/14 08:55:40;;;;;;;3.20;2.10;;;;;;;30.73;27.31;98306.50;5090659;28;40386;-82
2023/04/14 08:58:10;;;;;;;2.63;1.60;;;;;;;29.42;27.99;98299.28;5093276;28;41829;-77
2023/04/14 09:00:38;;;;;;;3.00;1.63;;;;;;;29.06;28.69;98289.19;5076464;28;41781;-81
2023/04/14 09:03:07;;;;;;;2.43;1.90;;;;;;;29.36;29.12;98291.97;5093436;28;41395;-82
2023/04/14 09:05:36;;;;;;;4.00;2.00;;;;;;;29.48;28.13;98288.25;5093488;28;39012;-82
2023/04/14 09:08:05;;;;;;;4.40;2.40;;;;;;;29.38;27.75;98287.97;5094360;28;42646;-78
2023/04/14 09:10:35;;;;;;;2.67;1.93;;;;;;;29.02;27.91;98277.09;5093628;28;43132;-81
2023/04/14 09:13:05;;;;;;;2.83;1.93;;;;;;;28.50;28.57;98271.94;5076369;28;41013;-78
2023/04/14 09:15:33;;;;;;;3.07;2.40;;;;;;;27.97;29.16;98271.53;5075740;28;39162;-79
2023/04/14 09:18:00;;;;;;;2.77;2.13;;;;;;;27.79;29.28;98266.03;5076265;28;40139;-82
2023/04/14 09:20:29;;;;;;;3.47;2.03;;;;;;;27.41;29.14;98257.88;5093260;28;41661;-80
2023/04/14 09:22:56;;;;;;;3.13;2.40;;;;;;;27.09;29.55;98254.25;5092540;28;41136;-78
2023/04/14 09:25:26;;;;;;;3.60;2.33;;;;;;;27.24;29.64;98262.13;5092988;28;40039;-80
2023/04/14 09:27:54;;;;;;;2.83;2.50;;;;;;;27.85;29.43;98259.69;5093890;28;41744;-80
2023/04/14 09:30:23;;;;;;;3.20;2.03;;;;;;;28.43;29.00;98267.63;5092770;28;42912;-77
2023/04/14 09:32:52;;;;;;;4.40;3.27;;;;;;;29.78;26.79;98282.81;5092539;28;43194;-82
2023/04/14 09:35:20;;;;;;;3.73;2.73;;;;;;;30.81;26.63;98276.88;5094077;28;40987;-81
2023/04/14 09:37:48;;;;;;;3.57;2.63;;;;;;;31.11;25.69;98284.13;5094135;28;41866;-81
2023/04/14 09:40:29;;;;;;;3.90;2.30;;;;;;;31.19;25.44;98287.31;5094175;28;42734;-80
2023/04/14 09:42:57;;;;;;;3.93;2.57;;;;;;;30.57;25.87;98264.31;5075585;28;42407;-78
2023/04/14 09:45:41;;;;;;;3.43;3.07;;;;;;;30.20;26.18;98274.59;5075711;28;40198;-78
2023/04/14 09:48:11;;;;;;;3.40;2.80;;;;;;;30.62;26.69;98267.16;5094027;28;42059;-80
2023/04/14 09:50:58;;;;;;;2.73;2.53;;;;;;;31.48;25.05;98279.13;5092464;28;41891;-80
2023/04/14 09:53:27;;;;;;;3.83;3.40;;;;;;;31.51;24.61;98259.47;5075750;28;41252;-81
2023/04/14 09:55:58;;;;;;;3.87;3.40;;;;;;;30.06;25.30;98279.44;5093907;28;40081;-78
2023/04/14 09:58:29;;;;;;;5.20;3.50;;;;;;;28.58;26.77;98273.53;5075489;28;41035;-78
2023/04/14 10:00:58;;;;;;;3.97;3.67;;;;;;;28.23;27.36;98267.78;5090783;28;42908;-79
2023/04/14 10:03:36;;;;;;;3.43;3.13;;;;;;;28.31;27.38;98274.88;5093726;28;42112;-80
2023/04/14 10:06:08;;;;;;;3.97;3.60;;;;;;;28.41;26.85;98276.03;5093655;28;39932;-79
2023/04/14 10:08:37;;;;;;;4.47;4.10;;;;;;;28.80;26.20;98274.81;5092962;28;40753;-82
2023/04/14 10:11:23;;;;;;;4.27;3.87;;;;;;;28.06;26.68;98275.66;5093581;28;42805;-79
2023/04/14 10:13:55;;;;;;;4.10;3.70;;;;;;;27.15;27.99;98265.09;5090460;28;41674;-81
2023/04/14 10:16:23;;;;;;;3.70;3.40;;;;;;;26.24;28.69;98238.97;5093156;28;40614;-80
2023/04/14 10:18:52;;;;;;;3.93;3.43;;;;;;;25.68;29.42;98240.22;5093643;28;42223;-81
2023/04/14 10:21:21;;;;;;;3.67;3.30;;;;;;;25.04;30.73;98226.28;5091949;28;43022;-80
2023/04/14 10:24:35;;;;;;;3.50;3.20;;;;;;;24.54;31.70;98230.19;5091862;28;42977;-82
2023/04/14 10:27:05;;;;;;;2.77;2.57;;;;;;;24.02;32.57;98217.09;5075262;28;41053;-79
2023/04/14 10:29:32;;;;;;;3.80;3.23;;;;;;;23.76;33.13;98209.59;5092122;28;41811;-80
2023/04/14 10:32:04;;;;;;;4.63;3.27;;;;;;;23.49;32.24;98203.94;5075014;28;41824;-81
2023/04/14 10:34:33;;;;;;;3.87;3.53;;;;;;;23.31;32.64;98189.22;5090138;28;42357;-83
2023/04/14 10:37:12;;;;;;;3.13;2.87;;;;;;;23.52;33.40;98194.63;5091665;28;38856;-79
2023/04/14 10:39:41;;;;;;;4.40;3.07;;;;;;;24.10;33.65;98195.34;5092204;28;40917;-79
2023/04/14 10:42:10;;;;;;;4.13;3.30;;;;;;;24.62;31.42;98222.72;5092858;28;43639;-82
2023/04/14 10:45:11;;;;;;;3.87;3.17;;;;;;;24.32;31.48;98213.19;5093671;28;43347;-80
2023/04/14 10:47:40;;;;;;;3.23;2.60;;;;;;;23.45;34.28;98197.25;5093336;28;40820;-80
2023/04/14 10:50:13;;;;;;;3.50;3.20;;;;;;;22.44;37.59;98171.16;5076364;28;40756;-78
2023/04/14 10:52:49;;;;;;;3.03;2.73;;;;;;;21.32;39.67;98158.63;5092068;28;42805;-81
2023/04/14 10:55:17;;;;;;;2.57;1.97;;;;;;;20.48;41.19;98154.09;5091980;28;42355;-82
2023/04/14 10:57:46;;;;;;;2.50;1.87;;;;;;;19.78;42.59;98134.34;5074882;28;38984;-80
2023/04/14 11:00:26;;;;;;;1.47;1.30;;;;;;;19.27;43.15;98139.06;5075285;28;41078;-77
2023/04/14 11:02:56;;;;;;;1.80;1.10;;;;;;;18.83;43.87;98123.25;5091253;28;41369;-81
2023/04/14 11:05:24;;;;;;;2.13;1.50;;;;;;;18.60;44.91;98128.41;5091402;28;42228;-80
2023/04/14 11:07:56;;;;;;;2.07;1.57;;;;;;;18.42;46.66;98118.78;5074612;28;39886;-81
2023/04/14 11:10:33;;;;;;;1.77;1.67;;;;;;;18.26;46.42;98109.69;5089344;28;42724;-78
2023/04/14 11:13:05;;;;;;;2.97;2.27;;;;;;;18.06;46.96;98108.25;5090986;28;41694;-80
2023/04/14 11:15:47;;;;;;;2.13;1.70;;;;;;;17.96;47.16;98104.84;5073488;28;42438;-77
2023/04/14 11:18:17;;;;;;;1.73;1.63;;;;;;;17.83;47.53;98102.63;5074879;28;40654;-80
2023/04/14 11:20:45;;;;;;;2.17;1.70;;;;;;;17.75;48.05;98105.25;5074244;28;40731;-82
2023/04/14 11:23:14;;;;;;;3.03;1.67;;;;;;;17.64;47.93;98102.88;5091249;28;42662;-82
2023/04/14 11:25:41;;;;;;;1.97;1.80;;;;;;;17.26;48.48;98055.91;5074087;28;42127;-80
2023/04/14 11:28:10;;;;;;;1.87;1.77;;;;;;;17.48;48.10;98092.84;5092185;28;41054;-80
2023/04/14 11:30:40;;;;;;;1.53;1.40;;;;;;;17.35;47.32;98092.44;5092075;28;41869;-79
2023/04/14 11:33:08;;;;;;;1.50;1.40;;;;;;;17.24;47.92;98090.84;5090733;28;42793;-82
2023/04/14 11:35:35;;;;;;;1.37;1.10;;;;;;;17.29;47.20;98106.47;5074100;28;40891;-82
2023/04/14 11:38:03;;;;;;;1.43;1.33;;;;;;;17.42;46.25;98114.06;5074296;28;39240;-82
2023/04/14 11:40:32;;;;;;;1.80;1.67;;;;;;;17.65;47.03;98103.72;5073719;28;40599;-78
2023/04/14 11:43:00;;;;;;;1.23;1.13;;;;;;;17.87;45.66;98105.81;5090171;28;41750;-81
2023/04/14 11:45:29;;;;;;;1.60;1.50;;;;;;;18.45;45.72;98102.34;5090753;28;42242;-81
2023/04/14 11:47:58;;;;;;;1.20;1.10;;;;;;;19.31;45.41;98106.31;5090527;28;40970;-80
2023/04/14 11:50:27;;;;;;;1.50;0.97;;;;;;;20.23;44.81;98096.03;5073708;28;41311;-80
2023/04/14 11:52:58;;;;;;;0.80;0.80;;;;;;;21.27;39.59;98141.31;5090583;28;42738;-80